ADDS METAR Data INFO
IDs: Format: Raw Decoded Include TAF

Data at: 1958 UTC 15 Dec 2017

KLBB 151953Z 25013KT 10SM CLR 12/M06 A3019 RMK AO2 SLP217 T01171056
KLBB 151853Z 24015KT 10SM CLR 11/M05 A3023 RMK AO2 SLP232 T01061050
KLBB 151753Z 26009KT 10SM CLR 09/M04 A3027 RMK AO2 SLP246 T00891044 10089 21061 58012
KLBB 151653Z 26006KT 10SM CLR 06/M03 A3030 RMK AO2 SLP259 T00611033
KLBB 151553Z 30007KT 10SM CLR 02/M03 A3031 RMK AO2 SLP272 T00221033
KLBB 151453Z 28007KT 10SM CLR M03/M06 A3031 RMK AO2 SLP277 T10281056 50001
KLBB 151353Z 29004KT 10SM FEW300 M06/M07 A3032 RMK AO2 SLP280 T10561072
KLBB 151253Z 30005KT 10SM CLR M06/M07 A3032 RMK AO2 SLP279 T10561072
KLBB 151153Z 27004KT 10SM CLR M04/M07 A3030 RMK AO2 SLP270 T10441067 10022 21044 51003
KLBB 151053Z 31003KT 10SM CLR M04/M07 A3030 RMK AO2 SLP263 T10391067
KLBB 150953Z 32006KT 10SM CLR M03/M06 A3031 RMK AO2 SLP263 T10281056
KLBB 150853Z 33008KT 10SM FEW090 M02/M05 A3029 RMK AO2 SLP258 T10171050 50000
KLBB 150753Z 33008KT 10SM FEW090 M01/M04 A3030 RMK AO2 SLP257 T10111044
KLBB 150653Z 33007KT 10SM FEW075 FEW090 01/M04 A3030 RMK AO2 SLP255 T00061039
KLBB 150553Z 32007KT 10SM SCT050 BKN075 OVC090 02/M03 A3030 RMK AO2 SLP254 T00221033 10067 20006 401111006 51016
KLBB 150453Z 36008KT 10SM SCT060 BKN075 OVC095 04/M03 A3029 RMK AO2 SLP252 T00391028
KLBB 150353Z 36009KT 10SM SCT080 01/M04 A3028 RMK AO2 SLP255 T00111039
KLBB 150253Z 01008KT 9SM FEW100 01/M04 A3025 RMK AO2 SLP247 T00061044 51026
KLBB 150153Z 02007KT 10SM FEW090 03/M04 A3022 RMK AO2 SLP239 T00281039
KLBB 150053Z 01008KT 10SM FEW160 04/M06 A3019 RMK AO2 SLP229 T00441056
KLBB 142353Z 02009KT 10SM FEW200 07/M06 A3016 RMK AO2 SLP213 T00671061 10111 20067 53010
KLBB 142253Z 03012KT 10SM FEW250 09/M07 A3014 RMK AO2 SLP202 T00941067
KLBB 142153Z 02013KT 10SM CLR 11/M07 A3013 RMK AO2 SLP198 T01061072
KLBB 142053Z 04014KT 10SM CLR 11/M06 A3013 RMK AO2 SLP197 T01061061 56009
KLBB 141953Z 02016G20KT 10SM CLR 11/M06 A3013 RMK AO2 PK WND 03026/1940 SLP197 T01061056
KLBB 141853Z 04013G20KT 10SM CLR 11/M06 A3015 RMK AO2 SLP205 T01061056
KLBB 141753Z 05016G23KT 10SM CLR 10/M06 A3016 RMK AO2 SLP207 T01001061 10100 21006 50013
KLBB 141653Z 06020KT 10SM CLR 08/M06 A3017 RMK AO2 SLP210 T00831061
KLBB 141553Z 06015G21KT 10SM CLR 07/M06 A3015 RMK AO2 SLP206 T00671061
KLBB 141453Z 04012KT 10SM CLR 03/M07 A3012 RMK AO2 SLP198 T00281072 51024
KLBB 141353Z 03011KT 10SM FEW250 M01/M09 A3009 RMK AO2 SLP189 T10061089
KLBB 141253Z 03011KT 10SM CLR 00/M09 A3007 RMK AO2 SLP181 T00001089
KLBB 141153Z 03010KT 10SM CLR 01/M09 A3004 RMK AO2 SLP164 T00111089 10022 20000 53018
KLBB 141053Z 04012KT 10SM CLR 02/M09 A3000 RMK AO2 SLP144 T00171094
KLBB 140953Z 03010KT 10SM CLR 01/M09 A2999 RMK AO2 SLP139 T00111094
KLBB 140853Z 02009KT 10SM CLR 01/M09 A2998 RMK AO2 SLP136 T00061094 53005